createdAt,value
2022-08-19T00:01:30.168Z,6.70
2022-08-19T00:03:58.771Z,5.95
2022-08-19T00:06:26.251Z,6.73
2022-08-19T00:08:52.977Z,7.38
2022-08-19T00:11:25.400Z,7.28
2022-08-19T00:13:53.279Z,6.68
2022-08-19T00:16:26.141Z,6.50
2022-08-19T00:18:54.427Z,7.10
2022-08-19T00:21:21.120Z,7.07
2022-08-19T00:23:48.219Z,6.97
2022-08-19T00:26:15.036Z,7.45
2022-08-19T00:28:42.072Z,6.65
2022-08-19T00:31:10.526Z,7.45
2022-08-19T00:33:37.775Z,7.15
2022-08-19T00:36:08.122Z,6.43
2022-08-19T00:38:37.701Z,6.97
2022-08-19T00:41:06.945Z,7.10
2022-08-19T00:43:34.104Z,6.22
2022-08-19T00:46:02.305Z,6.55
2022-08-19T00:48:29.132Z,6.68
2022-08-19T00:50:56.523Z,5.93
2022-08-19T00:53:27.270Z,6.55
2022-08-19T00:55:57.223Z,6.65
2022-08-19T00:58:28.378Z,6.10
2022-08-19T01:00:55.406Z,5.47
2022-08-19T01:03:23.512Z,6.53
2022-08-19T01:05:51.454Z,5.82
2022-08-19T01:08:20.496Z,6.35
2022-08-19T01:10:55.158Z,6.40
2022-08-19T01:13:48.922Z,5.55
2022-08-19T01:16:19.701Z,5.32
2022-08-19T01:18:46.994Z,5.82
2022-08-19T01:21:22.438Z,6.03
2022-08-19T01:23:49.371Z,4.95
2022-08-19T01:26:20.551Z,5.80
2022-08-19T01:28:50.582Z,6.13
2022-08-19T01:31:26.734Z,5.70
2022-08-19T01:33:56.763Z,6.10
2022-08-19T01:36:28.939Z,5.00
2022-08-19T01:38:56.630Z,5.55
2022-08-19T01:41:24.351Z,4.90
2022-08-19T01:44:17.121Z,4.80
2022-08-19T01:46:40.303Z,5.40
2022-08-19T01:49:08.914Z,4.80
2022-08-19T01:51:38.457Z,5.05
2022-08-19T01:54:07.748Z,4.88
2022-08-19T01:56:34.479Z,4.90
2022-08-19T01:59:09.332Z,6.13
2022-08-19T02:01:36.207Z,5.72
2022-08-19T02:04:03.467Z,5.70
2022-08-19T02:06:30.708Z,4.88
2022-08-19T02:08:57.947Z,4.93
2022-08-19T02:11:34.361Z,3.90
2022-08-19T02:14:03.658Z,4.10
2022-08-19T02:16:31.467Z,3.80
2022-08-19T02:19:01.306Z,3.65
2022-08-19T02:21:28.353Z,3.67
2022-08-19T02:23:56.216Z,3.60
2022-08-19T02:26:23.553Z,3.63
2022-08-19T02:28:50.518Z,3.28
2022-08-19T02:31:20.539Z,3.47
2022-08-19T02:33:48.603Z,2.97
2022-08-19T02:36:17.205Z,2.93
2022-08-19T02:38:54.905Z,3.05
2022-08-19T02:41:28.315Z,3.28
2022-08-19T02:44:26.593Z,3.22
2022-08-19T02:46:47.611Z,2.83
2022-08-19T02:49:17.069Z,2.53
2022-08-19T02:51:45.803Z,3.75
2022-08-19T02:54:13.910Z,2.83
2022-08-19T02:56:42.284Z,3.20
2022-08-19T02:59:11.783Z,4.18
2022-08-19T03:01:41.209Z,4.23
2022-08-19T03:04:09.429Z,5.05
2022-08-19T03:06:42.353Z,4.80
2022-08-19T03:09:09.799Z,5.38
2022-08-19T03:11:37.183Z,5.65
2022-08-19T03:14:07.064Z,5.70
2022-08-19T03:16:40.677Z,5.90
2022-08-19T03:19:07.435Z,3.88
2022-08-19T03:21:35.259Z,5.20
2022-08-19T03:24:09.893Z,5.47
2022-08-19T03:26:44.721Z,6.75
2022-08-19T03:29:13.246Z,5.00
2022-08-19T03:31:50.982Z,5.20
2022-08-19T03:34:28.714Z,4.73
2022-08-19T03:36:57.783Z,5.03
2022-08-19T03:39:26.080Z,5.95
2022-08-19T03:42:31.882Z,4.88
2022-08-19T03:44:45.717Z,5.93
2022-08-19T03:47:16.759Z,6.07
2022-08-19T03:49:44.081Z,6.85
2022-08-19T03:52:10.794Z,7.07
2022-08-19T03:54:39.195Z,5.65
2022-08-19T03:57:06.268Z,5.60
2022-08-19T03:59:36.098Z,5.03
2022-08-19T04:02:09.321Z,4.78
2022-08-19T04:04:38.343Z,4.30
2022-08-19T04:07:05.486Z,4.00
2022-08-19T04:09:32.248Z,5.22
2022-08-19T04:11:59.278Z,5.80
2022-08-19T04:14:30.945Z,4.75
2022-08-19T04:16:58.502Z,5.10
2022-08-19T04:19:26.244Z,5.35
2022-08-19T04:21:54.912Z,6.93
2022-08-19T04:24:22.751Z,5.43
2022-08-19T04:26:50.211Z,6.72
2022-08-19T04:29:19.926Z,6.85
2022-08-19T04:31:47.616Z,5.30
2022-08-19T04:34:17.036Z,7.18
2022-08-19T04:36:45.673Z,6.50
2022-08-19T04:39:16.473Z,7.90
2022-08-19T04:42:01.973Z,7.43
2022-08-19T04:44:31.456Z,6.13
2022-08-19T04:47:01.015Z,6.22
2022-08-19T04:49:28.754Z,7.13
2022-08-19T04:51:55.799Z,6.82
2022-08-19T04:54:38.763Z,8.68
2022-08-19T04:57:09.458Z,6.45
2022-08-19T04:59:37.986Z,7.55
2022-08-19T05:02:05.202Z,7.90
2022-08-19T05:04:32.959Z,7.35
2022-08-19T05:07:01.779Z,7.20
2022-08-19T05:09:55.242Z,6.53
2022-08-19T05:12:17.024Z,6.68
2022-08-19T05:14:45.843Z,7.73
2022-08-19T05:17:27.040Z,7.65
2022-08-19T05:20:14.739Z,7.25
2022-08-19T05:22:43.258Z,7.80
2022-08-19T05:25:15.863Z,7.50
2022-08-19T05:27:43.049Z,7.20
2022-08-19T05:30:11.158Z,7.82
2022-08-19T05:32:38.531Z,7.95
2022-08-19T05:35:06.396Z,5.82
2022-08-19T05:37:33.481Z,8.43
2022-08-19T05:40:00.262Z,8.03
2022-08-19T05:42:27.374Z,8.35
2022-08-19T05:44:54.111Z,8.60
2022-08-19T05:47:21.133Z,7.80
2022-08-19T05:49:48.342Z,7.75
2022-08-19T05:52:19.577Z,7.67
2022-08-19T05:54:55.624Z,8.13
2022-08-19T05:57:23.166Z,7.30
2022-08-19T05:59:53.321Z,6.60
2022-08-19T06:02:25.807Z,7.20
2022-08-19T06:04:52.527Z,8.50
2022-08-19T06:07:20.292Z,8.02
2022-08-19T06:09:59.639Z,8.45
2022-08-19T06:12:35.888Z,10.02
2022-08-19T06:15:06.830Z,11.48
2022-08-19T06:17:35.630Z,12.87
2022-08-19T06:20:07.942Z,12.73
2022-08-19T06:22:39.595Z,14.85
2022-08-19T06:25:06.816Z,15.85
2022-08-19T06:27:34.290Z,15.05
2022-08-19T06:30:01.187Z,15.40
2022-08-19T06:32:27.854Z,13.38
2022-08-19T06:34:54.524Z,14.90
2022-08-19T06:37:22.543Z,16.05
2022-08-19T06:39:49.518Z,15.07
2022-08-19T06:42:19.410Z,13.57
2022-08-19T06:44:50.036Z,16.65
2022-08-19T06:47:23.375Z,19.77
2022-08-19T06:50:02.940Z,19.25
2022-08-19T06:52:36.711Z,15.93
2022-08-19T06:55:06.309Z,21.03
2022-08-19T06:57:34.745Z,23.58
2022-08-19T07:00:01.947Z,20.52
2022-08-19T07:02:28.772Z,24.90
2022-08-19T07:04:58.274Z,24.17
2022-08-19T07:07:25.786Z,27.13
2022-08-19T07:10:00.236Z,25.02
2022-08-19T07:12:35.924Z,25.27
2022-08-19T07:15:06.939Z,23.55
2022-08-19T07:17:34.619Z,25.75
2022-08-19T07:20:05.121Z,22.20
2022-08-19T07:22:33.550Z,27.73
2022-08-19T07:25:00.796Z,25.20
2022-08-19T07:27:27.494Z,27.10
2022-08-19T07:29:56.054Z,27.30
2022-08-19T07:32:27.546Z,26.58
2022-08-19T07:34:54.997Z,27.63
2022-08-19T07:37:23.407Z,29.52
2022-08-19T07:39:50.163Z,29.95
2022-08-19T07:42:18.018Z,30.50
2022-08-19T07:44:50.406Z,27.85
2022-08-19T07:47:58.424Z,30.52
2022-08-19T07:50:09.164Z,30.55
2022-08-19T07:52:38.139Z,29.20
2022-08-19T07:55:06.732Z,29.63
2022-08-19T07:57:54.473Z,30.17
2022-08-19T08:00:23.826Z,28.48
2022-08-19T08:02:51.673Z,29.15
2022-08-19T08:05:56.952Z,29.35
2022-08-19T08:08:32.485Z,27.52
2022-08-19T08:11:00.533Z,25.98
2022-08-19T08:13:27.884Z,24.85
2022-08-19T08:15:55.920Z,23.60
2022-08-19T08:18:27.956Z,21.02
2022-08-19T08:20:58.664Z,23.40
2022-08-19T08:23:27.269Z,22.40
2022-08-19T08:25:57.715Z,22.52
2022-08-19T08:28:25.424Z,22.50
2022-08-19T08:30:53.247Z,21.42
2022-08-19T08:33:33.056Z,22.33
2022-08-19T08:36:11.763Z,23.48
2022-08-19T08:38:40.630Z,21.95
2022-08-19T08:41:23.454Z,20.70
2022-08-19T08:43:53.719Z,20.00
2022-08-19T08:46:31.340Z,20.10
2022-08-19T08:48:58.943Z,20.58
2022-08-19T08:51:44.069Z,19.45
2022-08-19T08:54:18.680Z,20.05
2022-08-19T08:56:46.933Z,19.77
2022-08-19T08:59:29.016Z,18.73
2022-08-19T09:01:55.750Z,18.58
2022-08-19T09:04:23.412Z,18.90
2022-08-19T09:07:18.638Z,17.30
2022-08-19T09:10:22.526Z,16.67
2022-08-19T09:13:09.170Z,17.70
2022-08-19T09:15:43.606Z,16.70
2022-08-19T09:18:15.104Z,14.15
2022-08-19T09:20:48.302Z,14.65
2022-08-19T09:23:15.346Z,15.50
2022-08-19T09:25:42.298Z,16.50
2022-08-19T09:28:22.686Z,13.68
2022-08-19T09:30:53.863Z,15.05
2022-08-19T09:33:20.998Z,15.00
2022-08-19T09:35:49.846Z,14.05
2022-08-19T09:38:21.372Z,15.35
2022-08-19T09:40:48.133Z,12.27
2022-08-19T09:43:14.815Z,14.77
2022-08-19T09:45:41.600Z,15.07
2022-08-19T09:48:09.582Z,14.48
2022-08-19T09:50:51.734Z,14.15
2022-08-19T09:53:19.998Z,13.68
2022-08-19T09:55:46.703Z,13.35
2022-08-19T09:58:13.380Z,11.98
2022-08-19T10:00:40.244Z,12.88
2022-08-19T10:03:07.145Z,12.02
2022-08-19T10:05:50.371Z,11.90
2022-08-19T10:08:27.221Z,11.60
2022-08-19T10:10:55.770Z,11.85
2022-08-19T10:13:26.930Z,11.02
2022-08-19T10:15:56.027Z,10.98
2022-08-19T10:18:25.324Z,11.30
2022-08-19T10:20:54.458Z,11.40
2022-08-19T10:23:22.027Z,12.18
2022-08-19T10:25:50.524Z,12.50
2022-08-19T10:28:19.512Z,11.55
2022-08-19T10:30:46.641Z,12.85
2022-08-19T10:33:13.643Z,14.38
2022-08-19T10:35:42.790Z,13.60
2022-08-19T10:38:31.864Z,12.70
2022-08-19T10:41:08.215Z,13.95
2022-08-19T10:43:39.071Z,11.70
2022-08-19T10:46:09.658Z,13.45
2022-08-19T10:48:42.523Z,14.85
2022-08-19T10:51:28.830Z,13.57
2022-08-19T10:53:56.665Z,14.70
2022-08-19T10:56:42.716Z,14.75
2022-08-19T10:59:09.818Z,15.15
2022-08-19T11:01:36.901Z,14.00
2022-08-19T11:04:05.131Z,15.93
2022-08-19T11:06:35.371Z,16.35
2022-08-19T11:09:02.014Z,15.93
2022-08-19T11:11:29.450Z,16.70
2022-08-19T11:13:56.295Z,16.25
2022-08-19T11:16:26.714Z,16.52
2022-08-19T11:18:59.234Z,17.40
2022-08-19T11:21:32.714Z,14.30
2022-08-19T11:24:06.777Z,18.25
2022-08-19T11:26:34.963Z,17.80
2022-08-19T11:29:02.563Z,17.90
2022-08-19T11:31:31.798Z,15.98
2022-08-19T11:34:00.616Z,17.27
2022-08-19T11:36:28.802Z,17.23
2022-08-19T11:38:55.895Z,16.90
2022-08-19T11:41:24.515Z,17.35
2022-08-19T11:43:56.038Z,17.33
2022-08-19T11:46:24.725Z,19.35
2022-08-19T11:48:51.802Z,18.65
2022-08-19T11:51:22.543Z,18.90
2022-08-19T11:53:51.206Z,18.08
2022-08-19T11:56:19.595Z,20.50
2022-08-19T11:58:46.802Z,16.85
2022-08-19T12:01:16.895Z,18.25
2022-08-19T12:03:46.209Z,18.48
2022-08-19T12:06:16.258Z,17.75
2022-08-19T12:08:43.939Z,17.60
2022-08-19T12:11:12.455Z,19.50
2022-08-19T12:13:39.827Z,16.10
2022-08-19T12:16:13.154Z,17.55
2022-08-19T12:18:44.547Z,16.95
2022-08-19T12:21:14.423Z,18.45
2022-08-19T12:23:42.527Z,20.45
2022-08-19T12:26:11.133Z,18.80
2022-08-19T12:28:39.095Z,19.02
2022-08-19T12:31:06.820Z,16.08
2022-08-19T12:33:33.680Z,16.30
2022-08-19T12:36:08.820Z,16.92
2022-08-19T12:38:35.576Z,19.65
2022-08-19T12:41:06.283Z,17.08
2022-08-19T12:43:34.051Z,19.02
2022-08-19T12:46:00.702Z,19.05
2022-08-19T12:48:31.394Z,15.32
2022-08-19T12:51:02.814Z,15.68
2022-08-19T12:53:29.898Z,15.95
2022-08-19T12:55:58.129Z,14.68
2022-08-19T12:58:27.298Z,13.82
2022-08-19T13:00:54.806Z,14.38
2022-08-19T13:03:23.305Z,12.75
2022-08-19T13:05:51.980Z,12.55
2022-08-19T13:08:18.686Z,12.10
2022-08-19T13:10:45.383Z,13.65
2022-08-19T13:13:12.300Z,13.23
2022-08-19T13:15:41.957Z,12.48
2022-08-19T13:18:11.216Z,12.13
2022-08-19T13:20:41.495Z,10.98
2022-08-19T13:23:09.641Z,10.40
2022-08-19T13:25:37.111Z,11.15
2022-08-19T13:28:04.861Z,12.02
2022-08-19T13:30:50.263Z,12.10
2022-08-19T13:33:17.078Z,13.30
2022-08-19T13:35:48.515Z,14.93
2022-08-19T13:38:18.482Z,14.15
2022-08-19T13:40:45.720Z,13.38
2022-08-19T13:43:22.648Z,12.98
2022-08-19T13:45:53.488Z,16.13
2022-08-19T13:48:20.390Z,15.88
2022-08-19T13:50:48.943Z,14.10
2022-08-19T13:53:16.450Z,13.75
2022-08-19T13:55:44.499Z,13.65
2022-08-19T13:58:12.444Z,13.55
2022-08-19T14:00:45.462Z,13.95
2022-08-19T14:03:12.654Z,15.45
2022-08-19T14:05:40.006Z,14.30
2022-08-19T14:08:06.945Z,15.57
2022-08-19T14:10:34.174Z,14.50
2022-08-19T14:13:03.963Z,12.88
2022-08-19T14:15:30.964Z,12.13
2022-08-19T14:17:57.703Z,9.15
2022-08-19T14:20:26.262Z,7.10
2022-08-19T14:22:54.501Z,6.97
2022-08-19T14:25:28.403Z,6.53
2022-08-19T14:27:55.660Z,7.50
2022-08-19T14:30:29.070Z,9.80
2022-08-19T14:32:58.988Z,9.95
2022-08-19T14:35:27.604Z,9.88
2022-08-19T14:37:58.691Z,9.80
2022-08-19T14:40:29.563Z,8.70
2022-08-19T14:43:00.396Z,10.68
2022-08-19T14:45:37.182Z,9.50
2022-08-19T14:48:06.003Z,10.32
2022-08-19T14:50:33.182Z,11.30
2022-08-19T14:53:11.832Z,10.38
2022-08-19T14:55:46.317Z,9.85
2022-08-19T14:58:29.282Z,9.30
2022-08-19T15:00:59.746Z,8.45
2022-08-19T15:03:26.931Z,8.73
2022-08-19T15:05:53.876Z,9.20
2022-08-19T15:08:25.607Z,7.47
2022-08-19T15:10:53.174Z,7.07
2022-08-19T15:13:19.986Z,8.20
2022-08-19T15:15:47.661Z,6.93
2022-08-19T15:18:14.395Z,6.95
2022-08-19T15:20:42.087Z,6.30
2022-08-19T15:23:09.124Z,6.88
2022-08-19T15:25:36.584Z,6.20
2022-08-19T15:28:04.175Z,5.68
2022-08-19T15:30:31.193Z,6.95
2022-08-19T15:32:59.046Z,5.75
2022-08-19T15:35:26.244Z,5.70
2022-08-19T15:37:54.257Z,5.97
2022-08-19T15:40:22.561Z,5.50
2022-08-19T15:42:49.923Z,6.05
2022-08-19T15:45:18.632Z,4.95
2022-08-19T15:47:45.291Z,6.03
2022-08-19T15:50:16.429Z,5.50
2022-08-19T15:52:58.699Z,5.88
2022-08-19T15:55:34.563Z,5.18
2022-08-19T15:58:28.737Z,5.10
2022-08-19T16:01:20.714Z,4.80
2022-08-19T16:04:14.238Z,4.30
2022-08-19T16:06:50.982Z,4.40
2022-08-19T16:09:24.889Z,3.80
2022-08-19T16:11:56.961Z,4.55
2022-08-19T16:14:26.287Z,4.15
2022-08-19T16:16:53.996Z,4.72
2022-08-19T16:19:20.771Z,4.50
2022-08-19T16:21:50.121Z,4.82
2022-08-19T16:24:22.303Z,5.40
2022-08-19T16:26:49.168Z,5.50
2022-08-19T16:29:27.671Z,5.43
2022-08-19T16:32:01.299Z,6.10
2022-08-19T16:34:30.469Z,5.88
2022-08-19T16:36:57.175Z,5.73
2022-08-19T16:39:24.099Z,5.65
2022-08-19T16:41:51.468Z,6.60
2022-08-19T16:44:19.374Z,7.18
2022-08-19T16:46:52.577Z,5.80
2022-08-19T16:49:53.817Z,5.00
2022-08-19T16:52:14.832Z,5.50
2022-08-19T16:54:43.747Z,5.47
2022-08-19T16:57:12.029Z,5.40
2022-08-19T16:59:49.076Z,5.22
2022-08-19T17:02:18.443Z,5.63
2022-08-19T17:04:57.322Z,5.82
2022-08-19T17:07:28.468Z,6.97
2022-08-19T17:09:56.446Z,7.38
2022-08-19T17:12:30.803Z,6.70
2022-08-19T17:15:00.597Z,7.40
2022-08-19T17:17:29.372Z,8.25
2022-08-19T17:19:57.459Z,8.25
2022-08-19T17:22:24.137Z,8.30
2022-08-19T17:24:50.772Z,8.38
2022-08-19T17:27:19.707Z,8.27
2022-08-19T17:29:47.145Z,7.18
2022-08-19T17:32:15.267Z,6.18
2022-08-19T17:34:42.009Z,7.40
2022-08-19T17:37:08.787Z,6.30
2022-08-19T17:39:38.994Z,5.43
2022-08-19T17:42:08.160Z,5.85
2022-08-19T17:44:36.530Z,5.30
2022-08-19T17:47:04.274Z,5.80
2022-08-19T17:49:33.321Z,5.88
2022-08-19T17:52:00.399Z,5.30
2022-08-19T17:54:31.921Z,5.40
2022-08-19T17:57:01.219Z,5.82
2022-08-19T17:59:30.071Z,5.00
2022-08-19T18:01:57.389Z,5.20
2022-08-19T18:04:25.795Z,5.40
2022-08-19T18:06:55.139Z,4.97
2022-08-19T18:09:27.403Z,5.20
2022-08-19T18:11:57.069Z,4.50
2022-08-19T18:14:33.313Z,4.70
2022-08-19T18:17:10.689Z,4.20
2022-08-19T18:19:42.007Z,4.90
2022-08-19T18:22:33.523Z,4.68
2022-08-19T18:25:01.826Z,3.78
2022-08-19T18:27:28.726Z,4.03
2022-08-19T18:29:57.939Z,4.03
2022-08-19T18:32:26.598Z,3.67
2022-08-19T18:34:54.039Z,3.08
2022-08-19T18:37:20.923Z,3.65
2022-08-19T18:40:07.145Z,2.75
2022-08-19T18:42:52.447Z,2.97
2022-08-19T18:45:37.920Z,2.80
2022-08-19T18:48:27.502Z,2.47
2022-08-19T18:51:00.130Z,3.92
2022-08-19T18:53:28.799Z,3.78
2022-08-19T18:55:56.426Z,3.45
2022-08-19T18:58:34.987Z,4.88
2022-08-19T19:01:11.855Z,4.75
2022-08-19T19:03:43.506Z,4.70
2022-08-19T19:06:10.266Z,5.05
2022-08-19T19:08:38.849Z,5.47
2022-08-19T19:11:06.127Z,4.60
2022-08-19T19:13:33.982Z,4.60
2022-08-19T19:16:01.335Z,5.70
2022-08-19T19:18:29.195Z,4.22
2022-08-19T19:20:56.518Z,3.60
2022-08-19T19:23:23.715Z,4.00
2022-08-19T19:25:52.188Z,3.80
2022-08-19T19:28:25.287Z,3.50
2022-08-19T19:30:54.022Z,3.05
2022-08-19T19:33:20.722Z,2.75
2022-08-19T19:35:47.493Z,2.20
2022-08-19T19:38:14.664Z,2.08
2022-08-19T19:40:41.466Z,2.30
2022-08-19T19:43:08.440Z,2.40
2022-08-19T19:45:35.101Z,2.60
2022-08-19T19:48:01.736Z,3.03
2022-08-19T19:50:31.153Z,2.90
2022-08-19T19:52:58.468Z,3.13
2022-08-19T19:55:26.656Z,3.50
2022-08-19T19:57:54.099Z,3.20
2022-08-19T20:00:21.981Z,3.17
2022-08-19T20:02:50.619Z,3.17
2022-08-19T20:05:20.690Z,3.10
2022-08-19T20:08:06.676Z,3.28
2022-08-19T20:10:33.411Z,3.08
2022-08-19T20:13:02.410Z,2.90
2022-08-19T20:15:29.474Z,2.67
2022-08-19T20:17:56.357Z,3.60
2022-08-19T20:20:23.616Z,4.38
2022-08-19T20:22:50.312Z,3.95
2022-08-19T20:25:18.691Z,3.97
2022-08-19T20:27:49.253Z,3.70
2022-08-19T20:30:21.447Z,3.35
2022-08-19T20:32:50.509Z,3.50
2022-08-19T20:35:19.409Z,4.13
2022-08-19T20:37:46.326Z,3.42
2022-08-19T20:40:13.630Z,4.63
2022-08-19T20:42:42.739Z,3.55
2022-08-19T20:45:28.096Z,4.68
2022-08-19T20:47:58.680Z,5.50
2022-08-19T20:50:26.083Z,4.78
2022-08-19T20:52:57.187Z,5.15
2022-08-19T20:55:24.361Z,4.00
2022-08-19T20:57:51.543Z,3.88
2022-08-19T21:00:18.881Z,4.10
2022-08-19T21:02:46.770Z,4.13
2022-08-19T21:05:13.770Z,5.20
2022-08-19T21:07:41.060Z,4.97
2022-08-19T21:10:08.209Z,6.53
2022-08-19T21:12:35.411Z,6.13
2022-08-19T21:15:02.233Z,6.68
2022-08-19T21:17:28.934Z,5.78
2022-08-19T21:19:55.602Z,6.70
2022-08-19T21:22:22.282Z,5.88
2022-08-19T21:24:48.954Z,5.32
2022-08-19T21:27:15.603Z,6.15
2022-08-19T21:29:43.051Z,5.55
2022-08-19T21:32:14.039Z,7.35
2022-08-19T21:34:41.582Z,4.93
2022-08-19T21:37:11.637Z,4.90
2022-08-19T21:39:44.230Z,6.65
2022-08-19T21:42:12.526Z,6.15
2022-08-19T21:44:40.147Z,7.50
2022-08-19T21:47:12.756Z,6.82
2022-08-19T21:49:39.947Z,5.57
2022-08-19T21:52:07.230Z,6.40
2022-08-19T21:54:37.627Z,7.35
2022-08-19T21:57:09.997Z,6.07
2022-08-19T21:59:43.875Z,7.30
2022-08-19T22:02:22.068Z,6.68
2022-08-19T22:04:53.073Z,6.40
2022-08-19T22:07:21.303Z,5.53
2022-08-19T22:09:49.919Z,5.30
2022-08-19T22:12:31.760Z,5.63
2022-08-19T22:14:59.875Z,5.07
2022-08-19T22:17:31.413Z,6.03
2022-08-19T22:19:58.497Z,5.32
2022-08-19T22:22:29.365Z,5.75
2022-08-19T22:25:02.502Z,5.47
2022-08-19T22:27:29.241Z,7.45
2022-08-19T22:29:55.879Z,6.30
2022-08-19T22:32:28.307Z,6.20
2022-08-19T22:34:59.146Z,6.10
2022-08-19T22:37:28.782Z,7.38
2022-08-19T22:39:55.995Z,6.80
2022-08-19T22:42:23.404Z,7.85
2022-08-19T22:44:50.111Z,8.07
2022-08-19T22:47:17.169Z,7.97
2022-08-19T22:49:44.823Z,7.80
2022-08-19T22:52:17.185Z,6.50
2022-08-19T22:54:48.826Z,6.38
2022-08-19T22:57:16.251Z,7.78
2022-08-19T22:59:43.055Z,7.65
2022-08-19T23:02:10.107Z,8.02
2022-08-19T23:04:36.819Z,6.43
2022-08-19T23:07:05.047Z,6.88
2022-08-19T23:09:31.713Z,7.82
2022-08-19T23:11:59.092Z,8.35
2022-08-19T23:14:26.148Z,6.95
2022-08-19T23:16:54.986Z,5.60
2022-08-19T23:19:25.339Z,6.47
2022-08-19T23:21:52.531Z,6.78
2022-08-19T23:24:19.295Z,6.90
2022-08-19T23:27:04.491Z,7.30
2022-08-19T23:29:50.043Z,7.07
2022-08-19T23:32:18.701Z,7.13
2022-08-19T23:34:46.000Z,6.10
2022-08-19T23:37:12.716Z,6.22
2022-08-19T23:39:39.487Z,7.20
2022-08-19T23:42:11.412Z,6.97
2022-08-19T23:44:51.346Z,7.70
2022-08-19T23:47:19.666Z,7.78
2022-08-19T23:49:47.395Z,7.20
2022-08-19T23:52:14.103Z,7.28
2022-08-19T23:54:42.726Z,6.68
2022-08-19T23:57:13.334Z,7.72
2022-08-19T23:59:42.545Z,7.25
